Time;durP1;ratioP1;P1;durP2;ratioP2;P2;SDS_P1;SDS_P2;PMS_P1;PMS_P2;Temp;Humidity;BMP_temperature;BMP_pressure;BME280_temperature;BME280_humidity;BME280_pressure;Samples;Min_cycle;Max_cycle;Signal;HPM_P1;HPM_P2
2024/01/09 00:00:44;;;;;;;5.40;3.60;;;;;;;21.14;29.59;101564.98;103483;1284;61382;-77
2024/01/09 00:03:09;;;;;;;4.80;3.30;;;;;;;21.14;29.67;101568.92;103430;1282;62258;-78
2024/01/09 00:05:35;;;;;;;5.70;3.30;;;;;;;21.14;29.61;101572.32;103523;1282;61365;-78
2024/01/09 00:08:00;;;;;;;5.70;3.70;;;;;;;21.14;29.61;101572.33;103652;1283;61093;-78
2024/01/09 00:10:26;;;;;;;5.60;3.70;;;;;;;21.14;29.55;101578.59;103519;1281;61385;-78
2024/01/09 00:12:52;;;;;;;5.10;3.30;;;;;;;21.15;29.55;101582.14;103508;1282;61386;-78
2024/01/09 00:15:18;;;;;;;6.20;3.70;;;;;;;21.14;29.54;101589.48;103516;1282;61253;-78
2024/01/09 00:17:43;;;;;;;5.50;3.60;;;;;;;21.15;29.61;101591.98;103496;1281;60003;-78
2024/01/09 00:20:10;;;;;;;4.90;3.40;;;;;;;21.15;29.47;101595.73;103491;1284;61353;-78
2024/01/09 00:22:37;;;;;;;4.90;3.30;;;;;;;21.15;29.52;101601.83;103534;1282;62315;-78
2024/01/09 00:25:04;;;;;;;6.30;3.70;;;;;;;21.15;29.46;101604.84;103354;1282;61490;-78
2024/01/09 00:27:29;;;;;;;5.20;3.20;;;;;;;21.15;29.65;101611.64;103457;1282;61353;-78
2024/01/09 00:29:55;;;;;;;5.00;3.60;;;;;;;21.15;29.38;101612.89;103534;1281;61369;-78
2024/01/09 00:32:20;;;;;;;6.00;3.60;;;;;;;21.15;29.60;101618.79;103666;1281;73371;-77
2024/01/09 00:34:46;;;;;;;5.90;3.60;;;;;;;21.16;29.47;101619.30;103555;1281;60016;-78
2024/01/09 00:37:12;;;;;;;5.70;3.50;;;;;;;21.16;29.35;101622.31;103471;1282;61408;-78
2024/01/09 00:39:38;;;;;;;5.40;3.60;;;;;;;21.16;29.37;101626.45;103515;1282;61595;-78
2024/01/09 00:42:04;;;;;;;5.70;3.40;;;;;;;21.15;29.45;101621.83;103647;1281;61420;-77
2024/01/09 00:44:29;;;;;;;5.50;3.60;;;;;;;21.16;29.50;101625.38;103502;1280;61326;-78
2024/01/09 00:46:56;;;;;;;4.60;3.00;;;;;;;21.16;29.48;101626.61;103366;1281;61423;-78
2024/01/09 00:49:21;;;;;;;5.30;3.20;;;;;;;21.16;29.36;101624.27;103293;1282;61410;-78
2024/01/09 00:51:47;;;;;;;6.40;3.60;;;;;;;21.17;29.34;101627.11;103443;1281;59314;-78
2024/01/09 00:54:13;;;;;;;5.10;3.40;;;;;;;21.16;29.40;101631.23;103402;1282;61339;-78
2024/01/09 00:56:38;;;;;;;5.00;3.40;;;;;;;21.17;29.40;101633.21;103481;1282;61357;-78
2024/01/09 00:59:04;;;;;;;5.40;3.40;;;;;;;21.17;29.28;101630.14;103229;1287;61269;-78
2024/01/09 01:01:29;;;;;;;5.50;3.50;;;;;;;21.16;29.39;101631.61;103988;1282;61429;-77
2024/01/09 01:03:55;;;;;;;5.40;3.40;;;;;;;21.17;29.42;101633.73;103477;1281;61391;-77
2024/01/09 01:06:21;;;;;;;4.60;3.30;;;;;;;21.17;29.35;101636.94;103401;1281;61382;-77
2024/01/09 01:08:46;;;;;;;5.20;3.30;;;;;;;21.17;29.32;101640.52;103308;1285;61346;-77
2024/01/09 01:11:12;;;;;;;4.80;3.30;;;;;;;21.17;29.35;101644.28;103549;1282;61464;-77
2024/01/09 01:13:37;;;;;;;5.20;3.20;;;;;;;21.17;29.42;101645.01;103462;1282;61478;-77
2024/01/09 01:16:03;;;;;;;5.90;3.60;;;;;;;21.17;29.25;101647.85;103464;1281;61731;-77
2024/01/09 01:18:29;;;;;;;5.80;3.60;;;;;;;21.17;29.33;101648.58;103304;1281;59344;-77
2024/01/09 01:20:55;;;;;;;5.30;3.20;;;;;;;21.17;29.39;101647.13;103363;1283;61445;-77
2024/01/09 01:23:20;;;;;;;5.60;3.30;;;;;;;21.18;29.33;101649.09;103472;1281;61495;-77
2024/01/09 01:25:46;;;;;;;4.80;3.20;;;;;;;21.18;29.33;101647.27;103618;1281;61478;-77
2024/01/09 01:28:12;;;;;;;6.10;3.30;;;;;;;21.18;29.43;101648.71;103391;1282;59523;-78
2024/01/09 01:30:37;;;;;;;6.10;3.70;;;;;;;21.18;29.24;101648.50;103441;1282;72479;-77
2024/01/09 01:33:03;;;;;;;5.40;3.30;;;;;;;21.18;29.32;101652.13;103500;1281;61473;-78
2024/01/09 01:35:29;;;;;;;5.70;3.20;;;;;;;21.18;29.30;101655.30;103573;1282;61290;-78
2024/01/09 01:37:55;;;;;;;5.20;3.40;;;;;;;21.18;29.33;101654.77;103538;1281;61477;-77
2024/01/09 01:40:20;;;;;;;5.10;3.50;;;;;;;21.18;29.16;101654.22;103442;1282;61394;-77
2024/01/09 01:42:46;;;;;;;5.90;3.40;;;;;;;21.19;29.32;101659.58;103663;1281;60015;-77
2024/01/09 01:45:18;;;;;;;6.70;3.30;;;;;;;21.19;29.26;101661.17;103522;1281;74176;-77
2024/01/09 01:47:44;;;;;;;6.00;3.50;;;;;;;21.19;29.24;101667.79;103466;1282;61351;-78
2024/01/09 01:50:10;;;;;;;5.40;3.50;;;;;;;21.19;29.28;101668.15;103309;1281;62084;-77
2024/01/09 01:52:36;;;;;;;5.10;3.50;;;;;;;21.19;29.32;101666.88;103334;1283;61461;-77
2024/01/09 01:55:02;;;;;;;6.40;3.00;;;;;;;21.20;29.15;101668.46;103549;1282;61912;-76
2024/01/09 01:57:27;;;;;;;6.20;3.40;;;;;;;21.20;29.09;101669.18;103496;1281;61305;-77
2024/01/09 01:59:53;;;;;;;5.20;3.40;;;;;;;21.20;29.24;101665.95;103393;1281;61262;-77
2024/01/09 02:02:19;;;;;;;5.20;3.60;;;;;;;21.19;29.36;101670.63;103446;1282;61384;-77
2024/01/09 02:04:45;;;;;;;4.60;3.10;;;;;;;21.20;29.17;101668.48;103473;1281;72841;-77
2024/01/09 02:07:10;;;;;;;5.20;3.30;;;;;;;21.19;29.23;101669.21;103475;1281;62245;-77
2024/01/09 02:09:37;;;;;;;5.20;3.50;;;;;;;21.20;29.14;101667.73;103499;1282;61434;-77
2024/01/09 02:12:04;;;;;;;5.50;3.30;;;;;;;21.20;29.12;101664.69;103597;1282;61368;-77
2024/01/09 02:14:30;;;;;;;4.90;3.30;;;;;;;21.20;29.24;101666.30;103312;1282;60287;-77
2024/01/09 02:16:55;;;;;;;5.00;3.60;;;;;;;21.20;29.13;101669.71;103502;1282;62139;-77
2024/01/09 02:19:21;;;;;;;5.60;3.40;;;;;;;21.21;29.15;101669.30;103339;1282;61365;-77
2024/01/09 02:21:50;;;;;;;6.30;3.20;;;;;;;21.20;29.04;101669.86;103585;1281;61284;-77
2024/01/09 02:24:18;;;;;;;5.70;3.20;;;;;;;21.21;29.03;101672.33;103383;1282;61375;-77
2024/01/09 02:26:47;;;;;;;5.70;3.10;;;;;;;21.20;29.10;101671.66;103323;1281;71565;-77
2024/01/09 02:29:13;;;;;;;5.50;3.30;;;;;;;21.20;29.20;101670.23;103548;1282;75376;-77
2024/01/09 02:31:39;;;;;;;4.70;3.20;;;;;;;21.20;29.02;101669.69;103535;1280;61343;-77
2024/01/09 02:34:04;;;;;;;5.10;3.30;;;;;;;21.21;29.11;101670.55;103521;1280;61442;-77
2024/01/09 02:36:30;;;;;;;5.80;3.50;;;;;;;21.21;29.10;101671.98;103382;1281;61261;-77
2024/01/09 02:38:56;;;;;;;5.80;3.30;;;;;;;21.21;29.09;101674.31;103593;1281;61130;-77
2024/01/09 02:41:21;;;;;;;4.80;3.20;;;;;;;21.20;29.05;101669.87;103496;1281;62834;-77
2024/01/09 02:43:47;;;;;;;5.40;3.20;;;;;;;21.21;29.00;101672.33;103527;1280;61471;-77
2024/01/09 02:46:12;;;;;;;5.60;3.40;;;;;;;21.21;29.03;101674.11;103605;1280;62134;-77
2024/01/09 02:48:38;;;;;;;5.90;3.80;;;;;;;21.21;29.03;101671.42;103543;1281;60291;-77
2024/01/09 02:51:04;;;;;;;4.60;3.10;;;;;;;21.21;28.99;101678.60;103504;1281;61618;-77
2024/01/09 02:53:30;;;;;;;5.30;3.30;;;;;;;21.21;29.09;101679.84;103353;1281;61419;-77
2024/01/09 02:55:55;;;;;;;4.90;3.10;;;;;;;21.21;29.18;101687.88;103540;1281;61535;-77
2024/01/09 02:58:21;;;;;;;5.90;3.20;;;;;;;21.21;29.05;101690.77;103519;1281;61267;-77
2024/01/09 03:00:46;;;;;;;5.80;3.20;;;;;;;21.21;29.11;101697.39;103293;1281;60496;-77
2024/01/09 03:03:12;;;;;;;6.00;3.50;;;;;;;21.21;29.09;101700.26;103470;1281;61349;-77
2024/01/09 03:05:38;;;;;;;5.70;3.30;;;;;;;21.21;28.91;101700.60;103914;1281;61453;-77
2024/01/09 03:08:04;;;;;;;5.20;3.60;;;;;;;21.22;28.95;101700.23;103583;1283;61406;-77
2024/01/09 03:10:29;;;;;;;4.90;3.10;;;;;;;21.22;28.95;101699.86;103401;1280;61114;-77
2024/01/09 03:12:55;;;;;;;4.60;3.10;;;;;;;21.22;29.00;101703.42;103329;1282;61327;-77
2024/01/09 03:15:21;;;;;;;5.50;3.20;;;;;;;21.22;28.88;101710.55;103329;1282;60016;-77
2024/01/09 03:17:46;;;;;;;4.50;3.20;;;;;;;21.22;29.01;101713.45;103294;1282;61331;-77
2024/01/09 03:20:13;;;;;;;4.60;3.20;;;;;;;21.22;28.83;101715.59;103495;1282;61374;-77
2024/01/09 03:22:38;;;;;;;5.00;3.10;;;;;;;21.22;28.95;101718.61;103713;1282;61368;-77
2024/01/09 03:25:04;;;;;;;5.80;3.40;;;;;;;21.22;28.87;101717.73;103512;1281;72335;-77
2024/01/09 03:27:30;;;;;;;5.30;3.00;;;;;;;21.22;28.83;101719.51;103529;1281;61260;-78
2024/01/09 03:29:55;;;;;;;5.90;3.20;;;;;;;21.22;28.92;101722.93;103354;1282;61526;-77
2024/01/09 03:32:21;;;;;;;4.80;3.30;;;;;;;21.22;28.84;101726.15;103558;1282;61345;-78
2024/01/09 03:34:47;;;;;;;4.80;3.20;;;;;;;21.22;28.74;101724.00;103266;1284;61675;-77
2024/01/09 03:37:13;;;;;;;5.40;3.50;;;;;;;21.22;28.80;101728.85;103536;1282;61466;-76
2024/01/09 03:39:39;;;;;;;4.60;3.00;;;;;;;21.23;28.89;101734.18;103992;1281;75241;-77
2024/01/09 03:42:04;;;;;;;5.40;3.20;;;;;;;21.23;28.93;101735.77;103521;1282;60159;-77
2024/01/09 03:44:31;;;;;;;4.90;3.10;;;;;;;21.23;28.86;101738.27;103472;1282;61231;-77
2024/01/09 03:46:57;;;;;;;5.70;3.20;;;;;;;21.23;28.85;101739.52;103559;1281;61461;-77
2024/01/09 03:49:23;;;;;;;5.40;3.30;;;;;;;21.23;28.94;101743.64;103302;1282;61388;-77
2024/01/09 03:51:49;;;;;;;7.00;3.50;;;;;;;21.24;28.87;101750.39;103477;1282;62224;-77
2024/01/09 03:54:15;;;;;;;4.90;2.90;;;;;;;21.23;28.84;101756.00;103519;1282;61374;-77
2024/01/09 03:56:40;;;;;;;6.00;3.00;;;;;;;21.24;28.76;101753.09;103378;1285;60539;-77
2024/01/09 03:59:06;;;;;;;5.10;3.00;;;;;;;21.23;28.77;101757.58;103526;1281;72352;-77
2024/01/09 04:01:32;;;;;;;5.30;3.20;;;;;;;21.24;28.77;101758.98;103534;1281;61926;-77
2024/01/09 04:03:57;;;;;;;4.70;3.20;;;;;;;21.24;28.69;101758.98;103390;1282;60943;-77
2024/01/09 04:06:23;;;;;;;4.30;2.70;;;;;;;21.24;28.74;101756.67;103533;1281;61289;-77
2024/01/09 04:08:49;;;;;;;4.40;2.90;;;;;;;21.24;28.66;101763.44;103509;1281;61235;-77
2024/01/09 04:11:14;;;;;;;5.30;3.10;;;;;;;21.24;28.66;101770.61;103364;1282;61240;-77
2024/01/09 04:13:40;;;;;;;4.60;3.10;;;;;;;21.25;28.63;101772.91;103559;1284;75147;-77
2024/01/09 04:16:10;;;;;;;4.20;3.00;;;;;;;21.24;28.60;101780.10;103501;1282;61373;-78
2024/01/09 04:18:36;;;;;;;4.80;3.10;;;;;;;21.24;28.63;101780.24;102999;1282;61261;-78
2024/01/09 04:21:01;;;;;;;4.60;3.00;;;;;;;21.25;28.75;101779.71;103332;1282;61465;-78
2024/01/09 04:23:27;;;;;;;4.20;2.70;;;;;;;21.24;28.71;101783.13;103505;1281;61394;-78
2024/01/09 04:25:53;;;;;;;4.90;3.10;;;;;;;21.25;28.71;101786.52;103478;1281;61884;-78
2024/01/09 04:28:18;;;;;;;5.20;3.20;;;;;;;21.25;28.62;101788.11;103516;1281;61209;-78
2024/01/09 04:30:48;;;;;;;4.60;3.10;;;;;;;21.25;28.60;101790.82;103506;1283;73078;-78
2024/01/09 04:33:14;;;;;;;4.90;2.80;;;;;;;21.24;28.64;101794.95;103321;1281;61504;-78
2024/01/09 04:35:39;;;;;;;4.90;3.00;;;;;;;21.25;28.54;101797.63;103352;1281;62304;-78
2024/01/09 04:38:05;;;;;;;5.40;3.10;;;;;;;21.24;28.60;101800.85;103787;1284;61243;-77
2024/01/09 04:40:31;;;;;;;5.70;3.10;;;;;;;21.25;28.56;101803.87;103494;1282;62121;-77
2024/01/09 04:42:56;;;;;;;4.60;3.10;;;;;;;21.24;28.34;101809.09;103591;1281;61336;-78
2024/01/09 04:45:22;;;;;;;4.50;2.70;;;;;;;21.25;28.34;101809.98;103313;1282;61376;-78
2024/01/09 04:47:48;;;;;;;5.00;2.80;;;;;;;21.24;28.26;101812.14;103536;1280;61276;-78
2024/01/09 04:50:14;;;;;;;4.90;3.10;;;;;;;21.24;28.04;101810.05;103501;1281;61480;-78
2024/01/09 04:52:40;;;;;;;6.00;2.70;;;;;;;21.23;27.99;101816.52;103517;1282;61363;-78
2024/01/09 04:55:06;;;;;;;5.00;2.90;;;;;;;21.23;28.10;101819.38;103572;1281;61420;-78
2024/01/09 04:57:32;;;;;;;5.30;2.90;;;;;;;21.24;28.27;101820.05;103879;1281;61347;-78
2024/01/09 04:59:58;;;;;;;5.30;2.70;;;;;;;21.24;28.15;101823.59;103518;1281;61327;-77
2024/01/09 05:02:24;;;;;;;5.10;3.20;;;;;;;21.24;28.08;101826.27;103342;1282;60286;-78
2024/01/09 05:04:49;;;;;;;6.50;3.10;;;;;;;21.26;28.17;101825.49;103373;1286;72249;-78
2024/01/09 05:07:15;;;;;;;5.00;2.90;;;;;;;21.25;28.16;101822.10;103516;1281;61350;-77
2024/01/09 05:09:40;;;;;;;5.20;2.90;;;;;;;21.26;28.05;101821.90;103293;1282;62283;-78
2024/01/09 05:12:07;;;;;;;7.70;2.90;;;;;;;21.26;28.13;101823.50;103539;1282;59933;-78
2024/01/09 05:14:32;;;;;;;5.20;3.00;;;;;;;21.27;28.13;101819.89;103382;1281;61468;-78
2024/01/09 05:16:58;;;;;;;6.90;3.20;;;;;;;21.26;28.24;101817.24;103545;1281;61466;-78
2024/01/09 05:19:23;;;;;;;5.90;3.10;;;;;;;21.26;28.23;101819.73;103500;1281;75297;-77
2024/01/09 05:21:49;;;;;;;5.10;3.00;;;;;;;21.25;28.12;101821.21;103540;1281;61355;-78
2024/01/09 05:24:15;;;;;;;5.10;3.00;;;;;;;21.25;28.02;101820.87;103686;1282;61483;-77
2024/01/09 05:26:41;;;;;;;4.40;2.80;;;;;;;21.25;28.13;101824.27;103543;1280;61391;-77
2024/01/09 05:29:06;;;;;;;6.30;3.00;;;;;;;21.25;28.09;101833.92;103550;1283;61472;-78
2024/01/09 05:31:32;;;;;;;5.00;2.90;;;;;;;21.24;28.05;101835.41;103502;1285;60032;-77
2024/01/09 05:33:57;;;;;;;5.30;3.30;;;;;;;21.24;28.07;101840.61;103914;1280;61216;-77
2024/01/09 05:36:24;;;;;;;4.90;3.00;;;;;;;21.24;27.92;101851.37;103643;1280;61431;-78
2024/01/09 05:38:51;;;;;;;4.60;2.80;;;;;;;21.22;27.96;101856.48;103717;1279;61381;-79
2024/01/09 05:41:21;;;;;;;5.90;3.00;;;;;;;21.22;27.89;101868.48;104446;1281;74547;-78
2024/01/09 05:43:48;;;;;;;4.80;2.90;;;;;;;21.19;27.83;101878.69;104482;1281;61315;-80
2024/01/09 05:46:13;;;;;;;7.60;3.10;;;;;;;21.15;27.80;101888.91;104615;1282;60235;-82
2024/01/09 05:48:40;;;;;;;5.40;3.30;;;;;;;21.11;27.64;101898.81;104808;1281;61359;-79
2024/01/09 05:51:06;;;;;;;5.40;3.20;;;;;;;20.97;27.35;101911.89;105698;1284;59919;-79
2024/01/09 05:53:32;;;;;;;5.30;3.00;;;;;;;20.78;27.45;101910.39;105171;1285;61161;-79
2024/01/09 05:55:57;;;;;;;5.40;3.40;;;;;;;20.71;27.39;101914.68;105505;1280;61426;-81
2024/01/09 05:58:23;;;;;;;4.60;3.20;;;;;;;20.66;27.28;101917.98;105308;1282;60300;-79
2024/01/09 06:00:49;;;;;;;6.80;3.00;;;;;;;20.60;27.03;101925.40;105312;1282;59385;-81
2024/01/09 06:03:14;;;;;;;4.70;3.10;;;;;;;20.58;27.04;101945.73;105411;1286;74304;-80
2024/01/09 06:05:40;;;;;;;7.10;3.50;;;;;;;20.54;26.89;101957.36;105674;1282;61563;-79
2024/01/09 06:08:06;;;;;;;5.90;3.30;;;;;;;20.52;26.71;101978.60;105650;1282;59655;-80
2024/01/09 06:10:31;;;;;;;6.60;3.40;;;;;;;20.50;26.78;101999.08;105695;1283;60265;-81
2024/01/09 06:12:57;;;;;;;5.00;3.20;;;;;;;20.48;26.63;102009.04;105435;1283;59728;-80
2024/01/09 06:15:24;;;;;;;6.80;2.90;;;;;;;20.46;26.54;102014.84;105679;1281;59514;-81
2024/01/09 06:17:50;;;;;;;8.30;3.00;;;;;;;20.45;26.56;102021.69;105778;1280;61276;-79
2024/01/09 06:20:15;;;;;;;6.60;3.50;;;;;;;20.46;26.41;102034.14;105847;1281;59796;-79
2024/01/09 06:22:41;;;;;;;6.30;3.40;;;;;;;20.46;26.29;102033.27;106247;1280;58994;-81
2024/01/09 06:25:06;;;;;;;5.50;3.40;;;;;;;20.46;26.29;102031.65;105992;1280;60095;-81
2024/01/09 06:27:32;;;;;;;9.10;3.40;;;;;;;20.46;26.17;102027.55;105358;1284;62231;-81
2024/01/09 06:29:58;;;;;;;9.60;3.40;;;;;;;20.46;25.96;102030.59;105388;1285;61261;-80
2024/01/09 06:32:24;;;;;;;4.90;3.00;;;;;;;20.47;26.05;102040.70;105161;1284;61158;-80
2024/01/09 06:34:49;;;;;;;5.70;3.20;;;;;;;20.49;25.97;102046.15;105216;1285;59621;-80
2024/01/09 06:37:15;;;;;;;6.60;3.50;;;;;;;20.52;25.93;102049.56;105417;1285;61293;-82
2024/01/09 06:39:41;;;;;;;6.30;3.10;;;;;;;20.54;25.90;102056.97;105600;1284;59358;-81
2024/01/09 06:42:06;;;;;;;5.50;3.10;;;;;;;20.57;26.02;102056.48;105383;1285;61255;-80
2024/01/09 06:44:32;;;;;;;6.00;2.80;;;;;;;20.59;25.96;102056.92;105481;1284;61277;-81
2024/01/09 06:46:57;;;;;;;5.80;3.00;;;;;;;20.62;26.21;102063.41;105252;1284;59790;-82
2024/01/09 06:49:23;;;;;;;6.70;3.00;;;;;;;20.64;26.18;102068.48;105434;1284;61271;-81
2024/01/09 06:51:49;;;;;;;6.40;3.00;;;;;;;20.67;26.32;102068.73;104988;1284;59342;-80
2024/01/09 06:54:14;;;;;;;7.00;3.30;;;;;;;20.69;26.45;102073.29;105363;1284;59541;-78
2024/01/09 06:56:46;;;;;;;7.50;2.80;;;;;;;20.71;26.60;102074.80;105520;1284;59885;-81
2024/01/09 06:59:12;;;;;;;8.20;2.80;;;;;;;20.73;26.84;102074.84;105413;1283;72836;-79
2024/01/09 07:01:38;;;;;;;10.40;2.70;;;;;;;20.75;26.86;102083.17;105870;1283;60048;-80
2024/01/09 07:04:06;;;;;;;10.20;3.10;;;;;;;20.78;27.06;102087.70;105840;1284;61094;-78
2024/01/09 07:06:32;;;;;;;4.70;2.80;;;;;;;20.81;27.17;102086.65;105992;1281;71526;-80
2024/01/09 07:08:58;;;;;;;7.50;2.70;;;;;;;20.84;27.42;102090.94;105917;1281;61356;-79
2024/01/09 07:11:24;;;;;;;5.20;2.80;;;;;;;20.87;27.57;102100.30;106132;1281;59453;-80
2024/01/09 07:13:49;;;;;;;6.50;2.70;;;;;;;20.90;27.78;102110.70;105936;1281;59474;-80
2024/01/09 07:16:15;;;;;;;7.50;2.90;;;;;;;20.93;27.83;102119.70;105825;1281;61244;-77
2024/01/09 07:18:40;;;;;;;6.90;3.20;;;;;;;20.96;27.90;102117.60;105855;1281;60059;-77
2024/01/09 07:21:06;;;;;;;7.50;3.10;;;;;;;20.98;28.03;102112.98;105601;1282;61211;-77
2024/01/09 07:23:32;;;;;;;6.00;3.00;;;;;;;21.00;28.14;102109.67;105958;1282;61053;-79
2024/01/09 07:25:58;;;;;;;10.00;3.00;;;;;;;21.01;28.39;102099.77;106084;1282;59365;-79
2024/01/09 07:28:24;;;;;;;5.60;2.70;;;;;;;21.02;28.34;102102.06;105749;1282;62010;-78
2024/01/09 07:30:52;;;;;;;6.10;3.10;;;;;;;21.04;28.44;102105.38;105959;1281;61352;-79
2024/01/09 07:33:18;;;;;;;5.80;2.80;;;;;;;21.04;28.47;102113.40;106011;1279;59100;-80
2024/01/09 07:35:44;;;;;;;7.40;3.00;;;;;;;21.04;28.63;102106.08;105863;1282;61294;-79
2024/01/09 07:38:09;;;;;;;5.80;2.60;;;;;;;21.05;28.59;102100.14;105343;1281;949031;-79
2024/01/09 07:40:35;;;;;;;8.30;3.00;;;;;;;21.05;28.65;102097.26;106193;1281;60053;-79
2024/01/09 07:43:02;;;;;;;8.80;3.30;;;;;;;21.05;28.68;102098.31;106219;1280;59411;-80
2024/01/09 07:45:31;;;;;;;9.20;3.30;;;;;;;21.06;28.65;102110.83;106199;1282;58865;-80
2024/01/09 07:47:57;;;;;;;5.60;3.00;;;;;;;21.07;28.66;102115.05;106298;1284;59567;-79
2024/01/09 07:50:23;;;;;;;6.90;2.80;;;;;;;21.08;28.87;102112.88;106142;1282;61301;-78
2024/01/09 07:52:49;;;;;;;6.30;2.60;;;;;;;21.09;28.84;102108.86;105898;1281;61349;-79
2024/01/09 07:55:14;;;;;;;16.00;3.30;;;;;;;21.11;28.96;102109.67;106164;1281;61337;-78
2024/01/09 07:57:40;;;;;;;14.00;3.30;;;;;;;21.12;28.94;102111.26;106149;1284;59870;-80
2024/01/09 08:00:06;;;;;;;10.00;3.60;;;;;;;21.11;29.25;102111.80;106193;1281;59278;-81
2024/01/09 08:02:32;;;;;;;14.00;3.20;;;;;;;21.12;29.48;102117.70;106161;1281;60202;-80
2024/01/09 08:04:57;;;;;;;13.00;3.20;;;;;;;21.12;29.76;102124.30;106236;1281;59701;-81
2024/01/09 08:07:23;;;;;;;17.00;3.70;;;;;;;21.12;29.93;102129.86;106159;1280;60231;-82
2024/01/09 08:09:49;;;;;;;16.60;3.40;;;;;;;21.10;30.08;102136.00;106148;1282;61386;-81
2024/01/09 08:12:14;;;;;;;12.80;3.50;;;;;;;21.10;30.19;102143.91;106095;1281;60068;-81
2024/01/09 08:14:40;;;;;;;14.70;3.30;;;;;;;21.10;30.07;102146.61;106198;1282;59040;-80
2024/01/09 08:17:06;;;;;;;11.50;3.60;;;;;;;21.10;29.98;102153.02;106276;1281;59024;-80
2024/01/09 08:19:32;;;;;;;12.20;3.20;;;;;;;21.11;30.09;102156.93;106466;1284;61372;-80
2024/01/09 08:21:58;;;;;;;9.40;3.20;;;;;;;21.11;29.98;102157.64;106130;1281;59713;-81
2024/01/09 08:24:23;;;;;;;10.90;3.00;;;;;;;21.12;30.07;102157.97;106295;1282;61187;-81
2024/01/09 08:26:49;;;;;;;15.20;3.10;;;;;;;21.12;29.96;102156.70;106252;1282;60078;-82
2024/01/09 08:29:18;;;;;;;10.20;3.00;;;;;;;21.13;30.00;102159.00;106320;1279;59743;-82
2024/01/09 08:31:47;;;;;;;;;;;;;;;21.12;29.95;102171.90;106294;1281;72346;-80
2024/01/09 08:34:14;;;;;;;11.20;3.20;;;;;;;21.10;30.13;102190.27;106352;1280;74420;-80
2024/01/09 08:36:43;;;;;;;10.70;3.40;;;;;;;21.11;29.98;102212.05;106321;1281;59701;-81
2024/01/09 08:39:13;;;;;;;8.60;3.30;;;;;;;21.12;30.05;102225.95;106732;1281;60090;-79
2024/01/09 08:41:38;;;;;;;11.50;3.10;;;;;;;21.13;30.01;102228.45;106591;1282;74604;-80
2024/01/09 08:44:04;;;;;;;12.10;3.20;;;;;;;21.13;30.05;102226.13;106985;1282;59419;-81
2024/01/09 08:46:30;;;;;;;9.30;3.20;;;;;;;21.13;30.18;102228.44;106841;1280;59129;-81
2024/01/09 08:48:55;;;;;;;12.10;3.20;;;;;;;21.14;30.21;102233.05;106908;1280;59241;-79
2024/01/09 08:51:22;;;;;;;7.30;3.10;;;;;;;21.14;30.09;102237.88;106919;1282;59272;-81
2024/01/09 08:53:47;;;;;;;10.70;3.10;;;;;;;21.14;30.11;102244.32;106211;1281;60587;-80
2024/01/09 08:56:13;;;;;;;16.60;4.10;;;;;;;21.14;30.22;102245.95;106264;1282;58827;-82
2024/01/09 08:58:39;;;;;;;19.30;3.80;;;;;;;21.12;30.36;102240.63;106342;1280;60772;-82
2024/01/09 09:01:05;;;;;;;12.60;3.80;;;;;;;21.10;30.49;102245.23;106136;1280;59614;-80
2024/01/09 09:03:30;;;;;;;15.30;4.20;;;;;;;21.05;30.71;102243.67;106283;1281;60214;-80
2024/01/09 09:05:59;;;;;;;12.00;3.80;;;;;;;21.00;30.87;102247.46;106181;1282;59615;-80
2024/01/09 09:08:25;;;;;;;15.50;4.20;;;;;;;20.98;30.73;102255.65;105766;1282;60110;-81
2024/01/09 09:10:51;;;;;;;10.60;3.80;;;;;;;20.97;30.63;102251.95;106976;1281;59853;-79
2024/01/09 09:13:16;;;;;;;14.20;3.70;;;;;;;20.97;30.76;102252.83;107024;1280;59564;-80
2024/01/09 09:15:42;;;;;;;13.40;3.90;;;;;;;20.98;30.81;102243.12;106331;1280;59917;-80
2024/01/09 09:18:07;;;;;;;12.80;3.90;;;;;;;20.99;30.64;102239.67;105852;1280;59647;-81
2024/01/09 09:20:33;;;;;;;17.90;3.70;;;;;;;21.00;30.90;102241.05;106312;1282;60218;-81
2024/01/09 09:22:59;;;;;;;12.90;3.90;;;;;;;21.01;30.96;102242.95;106291;1281;60941;-81
2024/01/09 09:25:24;;;;;;;11.10;4.00;;;;;;;21.02;31.13;102249.37;106176;1284;60587;-81
2024/01/09 09:27:50;;;;;;;19.30;3.80;;;;;;;21.04;31.04;102259.67;106339;1284;60731;-80
2024/01/09 09:30:16;;;;;;;16.50;3.70;;;;;;;21.04;31.13;102269.83;106220;1281;60066;-80
2024/01/09 09:32:41;;;;;;;10.70;4.20;;;;;;;21.04;31.14;102276.66;106217;1282;59763;-80
2024/01/09 09:35:07;;;;;;;12.00;3.80;;;;;;;21.01;31.22;102283.45;106194;1282;59462;-80
2024/01/09 09:37:34;;;;;;;12.00;4.30;;;;;;;20.97;31.14;102287.55;106114;1282;72183;-81
2024/01/09 09:40:00;;;;;;;16.30;4.60;;;;;;;20.93;30.95;102286.48;106200;1280;74544;-81
2024/01/09 09:42:25;;;;;;;14.00;4.20;;;;;;;20.90;30.67;102283.92;106448;1280;60059;-84
2024/01/09 09:44:52;;;;;;;11.50;4.10;;;;;;;20.91;30.32;102280.81;106340;1282;61108;-81
2024/01/09 09:47:19;;;;;;;11.20;4.30;;;;;;;20.90;30.12;102277.86;106315;1281;59725;-79
2024/01/09 09:49:45;;;;;;;9.20;3.70;;;;;;;20.88;30.08;102273.66;106266;1284;61422;-79
2024/01/09 09:52:11;;;;;;;16.30;4.50;;;;;;;20.81;29.82;102270.02;106200;1280;59585;-80
2024/01/09 09:54:37;;;;;;;18.50;4.50;;;;;;;20.71;29.56;102275.33;106060;1282;61439;-84
2024/01/09 09:57:03;;;;;;;18.90;5.00;;;;;;;20.62;29.79;102267.48;106162;1282;59848;-81
2024/01/09 09:59:29;;;;;;;9.10;4.40;;;;;;;20.55;29.92;102269.27;106324;1282;59988;-80
2024/01/09 10:01:55;;;;;;;15.70;4.10;;;;;;;20.40;29.71;102264.54;106117;1281;59719;-80
2024/01/09 10:04:28;;;;;;;19.10;4.60;;;;;;;20.32;29.90;102262.80;106203;1280;59299;-82
2024/01/09 10:06:55;;;;;;;14.70;4.60;;;;;;;20.28;30.13;102257.23;106390;1280;60210;-81
2024/01/09 10:09:22;;;;;;;15.00;4.40;;;;;;;20.22;30.12;102254.45;106640;1282;73473;-79
2024/01/09 10:11:51;;;;;;;18.10;4.70;;;;;;;20.13;30.06;102253.08;106708;1281;59435;-81
2024/01/09 10:14:17;;;;;;;12.40;4.50;;;;;;;19.89;30.01;102248.95;106521;1282;60700;-81
2024/01/09 10:16:53;;;;;;;13.70;4.90;;;;;;;19.82;30.11;102254.06;106695;1282;58913;-79
2024/01/09 10:19:22;;;;;;;9.60;4.30;;;;;;;19.82;30.13;102252.63;106305;1282;72886;-80
2024/01/09 10:21:49;;;;;;;13.10;4.50;;;;;;;19.84;29.82;102248.44;106726;1282;74283;-80
2024/01/09 10:24:15;;;;;;;12.10;4.20;;;;;;;19.87;29.99;102244.52;106882;1281;59810;-78
2024/01/09 10:26:41;;;;;;;10.30;4.40;;;;;;;19.94;29.67;102245.69;106492;1282;58841;-82
2024/01/09 10:29:13;;;;;;;9.70;4.00;;;;;;;19.99;29.67;102242.98;106770;1281;60125;-81
2024/01/09 10:31:41;;;;;;;12.10;4.30;;;;;;;20.02;29.51;102246.41;106745;1281;74685;-79
2024/01/09 10:34:10;;;;;;;14.00;4.20;;;;;;;20.06;29.66;102250.86;106685;1280;60233;-80
2024/01/09 10:36:36;;;;;;;10.60;4.30;;;;;;;20.10;29.73;102246.04;106413;1282;59755;-80
2024/01/09 10:39:05;;;;;;;13.50;4.30;;;;;;;20.12;29.89;102240.95;106717;1281;59671;-80
2024/01/09 10:41:31;;;;;;;16.60;4.30;;;;;;;20.11;29.80;102242.42;106504;1282;73472;-80
2024/01/09 10:43:59;;;;;;;12.70;4.40;;;;;;;20.11;29.68;102248.14;106513;1281;59473;-79
2024/01/09 10:46:26;;;;;;;11.90;4.40;;;;;;;20.13;29.41;102249.85;106648;1280;60184;-80
2024/01/09 10:48:52;;;;;;;14.90;4.30;;;;;;;20.16;29.17;102247.40;106686;1284;71508;-78
2024/01/09 10:51:18;;;;;;;14.10;4.00;;;;;;;20.18;29.31;102249.62;106579;1280;59242;-81
2024/01/09 10:53:44;;;;;;;14.30;4.20;;;;;;;20.21;29.38;102243.61;106652;1282;59607;-81
2024/01/09 10:56:10;;;;;;;19.20;4.30;;;;;;;20.26;29.44;102245.34;106420;1283;59367;-81
2024/01/09 10:58:36;;;;;;;11.60;4.00;;;;;;;20.31;29.48;102242.80;106511;1282;59991;-78
2024/01/09 11:01:02;;;;;;;12.40;4.10;;;;;;;20.34;29.51;102241.23;106502;1282;59482;-82
2024/01/09 11:03:29;;;;;;;15.10;3.70;;;;;;;20.31;29.43;102240.47;106366;1282;59971;-82
2024/01/09 11:05:58;;;;;;;14.30;3.70;;;;;;;20.14;29.43;102234.08;106020;1281;59154;-82
2024/01/09 11:08:24;;;;;;;15.10;3.60;;;;;;;19.99;29.13;102233.84;106726;1284;72353;-79